createdAt,value
2017-12-11T00:00:54.433Z,5.03
2017-12-11T00:03:21.977Z,5.05
2017-12-11T00:05:49.580Z,4.70
2017-12-11T00:08:17.892Z,7.30
2017-12-11T00:10:46.188Z,6.30
2017-12-11T00:13:25.368Z,7.85
2017-12-11T00:20:24.936Z,4.77
2017-12-11T00:22:53.240Z,7.33
2017-12-11T00:25:20.767Z,5.07
2017-12-11T00:27:49.376Z,5.27
2017-12-11T00:30:16.917Z,6.40
2017-12-11T00:32:45.300Z,6.80
2017-12-11T00:35:14.537Z,5.70
2017-12-11T00:37:42.068Z,10.87
2017-12-11T00:40:09.587Z,4.60
2017-12-11T00:42:37.136Z,4.53
2017-12-11T00:45:04.669Z,6.50
2017-12-11T00:47:32.191Z,4.80
2017-12-11T00:50:00.558Z,4.60
2017-12-11T00:52:28.860Z,3.20
2017-12-11T00:54:56.412Z,3.78
2017-12-11T00:57:23.978Z,4.43
2017-12-11T00:59:51.519Z,4.07
2017-12-11T01:02:19.815Z,4.33
2017-12-11T01:04:47.368Z,6.93
2017-12-11T01:07:15.476Z,4.87
2017-12-11T01:09:43.009Z,4.10
2017-12-11T01:12:10.588Z,4.50
2017-12-11T01:14:38.156Z,4.47
2017-12-11T01:17:05.685Z,4.00
2017-12-11T01:19:33.239Z,4.68
2017-12-11T01:22:00.765Z,3.63
2017-12-11T01:24:29.051Z,5.43
2017-12-11T01:26:57.376Z,4.90
2017-12-11T01:29:24.899Z,4.60
2017-12-11T01:31:52.437Z,6.65
2017-12-11T01:34:20.808Z,5.65
2017-12-11T01:36:48.337Z,5.37
2017-12-11T01:39:16.388Z,7.60
2017-12-11T01:41:43.961Z,13.60
2017-12-11T01:44:12.095Z,6.93
2017-12-11T01:46:39.629Z,6.57
2017-12-11T01:49:07.958Z,14.33
2017-12-11T01:51:35.488Z,10.83
2017-12-11T01:54:03.029Z,8.30
2017-12-11T01:56:31.382Z,6.62
2017-12-11T01:58:58.909Z,7.30
2017-12-11T02:01:26.442Z,7.18
2017-12-11T02:03:53.996Z,4.90
2017-12-11T02:06:21.528Z,6.35
2017-12-11T02:08:49.056Z,5.00
2017-12-11T02:11:16.609Z,5.93
2017-12-11T02:13:44.895Z,6.00
2017-12-11T02:16:12.425Z,6.55
2017-12-11T02:18:40.007Z,6.60
2017-12-11T02:21:08.299Z,9.43
2017-12-11T02:23:35.836Z,6.77
2017-12-11T02:26:03.497Z,7.00
2017-12-11T02:28:31.031Z,6.50
2017-12-11T02:30:58.613Z,6.93
2017-12-11T02:33:26.204Z,7.20
2017-12-11T02:35:53.695Z,5.23
2017-12-11T02:38:21.267Z,6.45
2017-12-11T02:40:48.863Z,4.50
2017-12-11T02:43:16.435Z,5.30
2017-12-11T02:45:44.225Z,5.13
2017-12-11T02:48:11.786Z,8.30
2017-12-11T02:50:40.081Z,9.97
2017-12-11T02:53:07.609Z,8.60
2017-12-11T02:55:35.926Z,8.33
2017-12-11T02:58:03.460Z,5.20
2017-12-11T03:00:30.996Z,3.30
2017-12-11T03:02:58.579Z,4.20
2017-12-11T03:05:26.115Z,4.03
2017-12-11T03:07:53.652Z,3.60
2017-12-11T03:10:21.216Z,9.23
2017-12-11T03:12:49.511Z,4.43
2017-12-11T03:15:17.818Z,3.90
2017-12-11T03:17:45.385Z,4.63
2017-12-11T03:20:24.828Z,4.50
2017-12-11T03:26:45.517Z,5.00
2017-12-11T03:29:14.567Z,4.70
2017-12-11T03:31:42.121Z,4.00
2017-12-11T03:34:09.679Z,4.60
2017-12-11T03:36:37.199Z,4.53
2017-12-11T03:39:04.723Z,3.93
2017-12-11T03:41:32.339Z,6.32
2017-12-11T03:43:59.870Z,6.60
2017-12-11T03:46:28.601Z,6.07
2017-12-11T03:48:56.179Z,4.73
2017-12-11T03:51:23.716Z,4.28
2017-12-11T03:53:51.259Z,3.27
2017-12-11T03:56:18.812Z,3.60
2017-12-11T03:58:46.343Z,8.73
2017-12-11T04:01:25.300Z,3.22
2017-12-11T04:05:44.846Z,3.37
2017-12-11T04:08:12.428Z,4.60
2017-12-11T04:10:39.948Z,4.27
2017-12-11T04:13:07.483Z,4.03
2017-12-11T04:15:35.043Z,2.90
2017-12-11T04:18:02.581Z,2.83
2017-12-11T04:20:30.099Z,4.83
2017-12-11T04:22:58.424Z,3.67
2017-12-11T04:25:25.956Z,3.13
2017-12-11T04:27:54.251Z,3.03
2017-12-11T04:30:21.838Z,4.47
2017-12-11T04:32:50.227Z,2.97
2017-12-11T04:35:17.767Z,3.03
2017-12-11T04:37:48.169Z,2.80
2017-12-11T04:40:16.551Z,3.42
2017-12-11T04:42:44.080Z,2.90
2017-12-11T04:45:12.399Z,3.73
2017-12-11T04:47:40.520Z,4.00
2017-12-11T04:50:08.067Z,4.50
2017-12-11T04:52:36.412Z,2.70
2017-12-11T04:55:03.959Z,3.00
2017-12-11T04:57:31.492Z,2.85
2017-12-11T04:59:59.053Z,2.63
2017-12-11T05:02:26.587Z,8.27
2017-12-11T05:04:54.895Z,3.33
2017-12-11T05:07:22.459Z,5.30
2017-12-11T05:09:49.974Z,3.07
2017-12-11T05:12:18.285Z,8.70
2017-12-11T05:14:46.216Z,2.80
2017-12-11T05:17:15.477Z,2.65
2017-12-11T05:19:43.008Z,7.13
2017-12-11T05:22:10.575Z,4.10
2017-12-11T05:24:38.103Z,3.40
2017-12-11T05:27:06.401Z,2.83
2017-12-11T05:29:33.984Z,2.50
2017-12-11T05:32:01.558Z,2.80
2017-12-11T05:34:29.907Z,2.93
2017-12-11T05:36:57.505Z,3.30
2017-12-11T05:39:25.052Z,7.20
2017-12-11T05:41:52.614Z,8.20
2017-12-11T05:46:53.968Z,4.33
2017-12-11T05:49:22.222Z,4.17
2017-12-11T05:51:49.767Z,3.63
2017-12-11T05:54:17.307Z,3.03
2017-12-11T05:56:44.917Z,6.10
2017-12-11T05:59:12.494Z,3.50
2017-12-11T06:01:40.036Z,3.60
2017-12-11T06:04:07.595Z,3.70
2017-12-11T06:06:35.919Z,3.13
2017-12-11T06:09:04.225Z,3.33
2017-12-11T06:11:31.811Z,4.18
2017-12-11T06:13:59.334Z,3.80
2017-12-11T06:16:26.863Z,3.83
2017-12-11T06:18:54.447Z,3.03
2017-12-11T06:21:21.971Z,3.77
2017-12-11T06:23:49.526Z,5.63
2017-12-11T06:26:17.097Z,4.20
2017-12-11T06:28:44.643Z,4.17
2017-12-11T06:31:12.199Z,5.23
2017-12-11T06:33:39.813Z,4.17
2017-12-11T06:36:07.352Z,6.63
2017-12-11T06:38:34.903Z,9.60
2017-12-11T06:41:02.512Z,6.03
2017-12-11T06:43:30.071Z,8.93
2017-12-11T06:45:57.634Z,20.07
2017-12-11T06:48:26.016Z,14.37
2017-12-11T06:50:53.797Z,17.87
2017-12-11T06:53:21.340Z,7.17
2017-12-11T06:55:48.954Z,6.70
2017-12-11T06:58:16.465Z,6.90
2017-12-11T07:00:44.001Z,16.63
2017-12-11T07:03:11.583Z,6.65
2017-12-11T07:05:39.137Z,7.60
2017-12-11T07:08:06.671Z,6.90
2017-12-11T07:10:34.244Z,5.70
2017-12-11T07:13:01.783Z,8.30
2017-12-11T07:15:29.320Z,4.43
2017-12-11T07:17:56.901Z,4.63
2017-12-11T07:20:24.442Z,4.80
2017-12-11T07:22:52.749Z,11.10
2017-12-11T07:25:20.416Z,4.00
2017-12-11T07:27:48.715Z,3.97
2017-12-11T07:30:16.459Z,4.70
2017-12-11T07:32:44.011Z,8.93
2017-12-11T07:35:11.546Z,8.02
2017-12-11T07:37:40.145Z,7.20
2017-12-11T07:40:07.727Z,15.10
2017-12-11T07:42:35.267Z,8.30
2017-12-11T07:45:02.811Z,8.73
2017-12-11T07:47:30.399Z,7.27
2017-12-11T07:49:57.936Z,10.03
2017-12-11T07:52:26.121Z,12.30
2017-12-11T07:54:53.680Z,13.77
2017-12-11T07:57:21.227Z,14.77
2017-12-11T07:59:48.782Z,11.93
2017-12-11T08:02:17.675Z,6.94
2017-12-11T08:04:45.199Z,5.80
2017-12-11T08:07:13.745Z,4.87
2017-12-11T08:09:41.328Z,5.53
2017-12-11T08:12:09.615Z,4.93
2017-12-11T08:14:37.929Z,4.40
2017-12-11T08:17:05.479Z,5.07
2017-12-11T08:19:33.764Z,4.50
2017-12-11T08:22:01.300Z,4.93
2017-12-11T08:24:28.872Z,6.03
2017-12-11T08:26:56.431Z,7.43
2017-12-11T08:29:23.969Z,6.33
2017-12-11T08:31:51.571Z,10.57
2017-12-11T08:34:19.112Z,8.43
2017-12-11T08:36:46.687Z,5.53
2017-12-11T08:39:24.624Z,6.53
2017-12-11T08:47:52.246Z,19.40
2017-12-11T08:50:19.800Z,20.25
2017-12-11T08:52:47.862Z,11.67
2017-12-11T08:55:16.460Z,13.68
2017-12-11T08:57:43.996Z,10.73
2017-12-11T09:00:11.525Z,8.30
2017-12-11T09:02:39.295Z,11.10
2017-12-11T09:05:06.876Z,14.47
2017-12-11T09:07:34.483Z,12.43
2017-12-11T09:10:02.059Z,11.47
2017-12-11T09:12:29.644Z,6.67
2017-12-11T09:14:57.183Z,5.50
2017-12-11T09:17:24.813Z,7.73
2017-12-11T09:19:52.540Z,5.30
2017-12-11T09:22:20.238Z,6.30
2017-12-11T09:24:47.889Z,7.13
2017-12-11T09:27:17.062Z,4.40
2017-12-11T09:29:44.787Z,9.30
2017-12-11T09:32:12.369Z,6.93
2017-12-11T09:34:39.971Z,3.80
2017-12-11T09:37:08.631Z,5.87
2017-12-11T09:39:36.948Z,3.87
2017-12-11T09:42:04.559Z,8.35
2017-12-11T09:44:32.144Z,4.60
2017-12-11T09:46:59.770Z,4.10
2017-12-11T09:49:28.128Z,3.53
2017-12-11T09:51:55.724Z,3.80
2017-12-11T09:54:24.494Z,3.90
2017-12-11T09:56:52.843Z,3.40
2017-12-11T09:59:20.399Z,4.46
2017-12-11T10:01:48.520Z,2.80
2017-12-11T10:04:16.464Z,4.97
2017-12-11T10:06:44.021Z,3.50
2017-12-11T10:09:11.665Z,11.93
2017-12-11T10:11:39.227Z,6.00
2017-12-11T10:14:06.782Z,4.30
2017-12-11T10:16:34.650Z,3.53
2017-12-11T10:19:02.176Z,3.50
2017-12-11T10:21:29.699Z,4.30
2017-12-11T10:23:57.288Z,5.17
2017-12-11T10:26:24.816Z,6.40
2017-12-11T10:28:52.369Z,5.23
2017-12-11T10:31:19.919Z,15.35
2017-12-11T10:33:47.454Z,9.27
2017-12-11T10:36:16.455Z,19.08
2017-12-11T10:38:44.075Z,10.43
2017-12-11T10:41:11.612Z,12.60
2017-12-11T10:43:39.908Z,11.00
2017-12-11T10:46:07.488Z,5.17
2017-12-11T10:48:35.396Z,8.20
2017-12-11T10:51:02.964Z,9.83
2017-12-11T10:53:31.327Z,11.55
2017-12-11T10:55:59.045Z,6.07
2017-12-11T10:58:26.580Z,5.30
2017-12-11T11:00:54.191Z,6.40
2017-12-11T11:03:22.435Z,4.63
2017-12-11T11:05:49.994Z,5.60
2017-12-11T11:08:17.576Z,10.68
2017-12-11T11:10:45.140Z,8.67
2017-12-11T11:13:13.632Z,7.47
2017-12-11T11:15:41.343Z,5.80
2017-12-11T11:18:08.870Z,7.27
2017-12-11T11:20:37.080Z,6.73
2017-12-11T11:23:06.166Z,5.37
2017-12-11T11:25:33.749Z,9.60
2017-12-11T11:28:01.285Z,5.57
2017-12-11T11:30:28.872Z,6.03
2017-12-11T11:32:56.411Z,5.55
2017-12-11T11:35:23.948Z,7.20
2017-12-11T11:37:52.268Z,5.37
2017-12-11T11:40:19.811Z,5.12
2017-12-11T11:42:47.344Z,13.20
2017-12-11T11:45:16.616Z,5.37
2017-12-11T11:47:44.192Z,5.27
2017-12-11T11:50:11.730Z,7.87
2017-12-11T11:52:40.067Z,8.37
2017-12-11T11:55:07.783Z,7.17
2017-12-11T11:57:35.666Z,8.73
2017-12-11T12:00:04.046Z,10.67
2017-12-11T12:02:32.350Z,12.20
2017-12-11T12:04:59.906Z,14.13
2017-12-11T12:07:27.575Z,9.82
2017-12-11T12:09:55.144Z,10.33
2017-12-11T12:12:22.678Z,6.63
2017-12-11T12:14:50.406Z,8.57
2017-12-11T12:17:17.943Z,7.43
2017-12-11T12:19:45.560Z,6.35
2017-12-11T12:22:14.652Z,5.97
2017-12-11T12:24:42.179Z,6.33
2017-12-11T12:27:09.709Z,9.60
2017-12-11T12:29:37.298Z,8.60
2017-12-11T12:32:05.609Z,6.47
2017-12-11T12:34:33.147Z,6.60
2017-12-11T12:37:00.756Z,5.10
2017-12-11T12:39:28.291Z,5.43
2017-12-11T12:41:55.832Z,7.80
2017-12-11T12:44:23.440Z,6.33
2017-12-11T12:46:50.995Z,5.90
2017-12-11T12:49:18.645Z,6.43
2017-12-11T12:51:46.683Z,6.33
2017-12-11T12:54:16.592Z,8.00
2017-12-11T12:56:44.912Z,8.10
2017-12-11T12:59:12.887Z,12.10
2017-12-11T13:01:40.420Z,15.10
2017-12-11T13:04:07.972Z,8.43
2017-12-11T13:06:35.531Z,8.20
2017-12-11T13:09:03.980Z,13.63
2017-12-11T13:11:32.275Z,13.43
2017-12-11T13:13:59.859Z,12.90
2017-12-11T13:16:27.414Z,17.17
2017-12-11T13:18:55.708Z,9.53
2017-12-11T13:21:23.280Z,10.23
2017-12-11T13:23:50.811Z,9.53
2017-12-11T13:26:18.337Z,8.27
2017-12-11T13:28:45.897Z,11.57
2017-12-11T13:31:15.770Z,12.27
2017-12-11T13:33:43.315Z,8.33
2017-12-11T13:36:11.336Z,12.47
2017-12-11T13:38:39.634Z,18.03
2017-12-11T13:41:07.168Z,12.63
2017-12-11T13:43:34.732Z,16.40
2017-12-11T13:46:03.037Z,14.90
2017-12-11T13:48:30.588Z,11.83
2017-12-11T13:50:58.437Z,18.50
2017-12-11T13:53:25.975Z,10.37
2017-12-11T13:55:54.279Z,9.65
2017-12-11T13:58:21.880Z,14.60
2017-12-11T14:00:49.691Z,16.40
2017-12-11T14:03:18.008Z,12.53
2017-12-11T14:05:45.579Z,11.63
2017-12-11T14:08:15.830Z,9.55
2017-12-11T14:10:43.370Z,6.03
2017-12-11T14:13:10.944Z,4.07
2017-12-11T14:15:38.477Z,5.43
2017-12-11T14:18:06.044Z,4.17
2017-12-11T14:20:34.395Z,4.33
2017-12-11T14:23:01.926Z,4.40
2017-12-11T14:25:29.473Z,12.40
2017-12-11T14:27:57.822Z,3.83
2017-12-11T14:30:25.350Z,4.13
2017-12-11T14:32:52.922Z,4.17
2017-12-11T14:35:20.553Z,3.95
2017-12-11T14:37:48.112Z,7.37
2017-12-11T14:40:16.433Z,5.65
2017-12-11T14:42:44.048Z,5.43
2017-12-11T14:45:11.708Z,4.90
2017-12-11T14:47:39.264Z,5.63
2017-12-11T14:50:07.204Z,6.90
2017-12-11T14:52:35.506Z,7.13
2017-12-11T14:55:03.031Z,4.90
2017-12-11T14:57:30.645Z,6.60
2017-12-11T14:59:58.180Z,7.60
2017-12-11T15:02:26.352Z,11.63
2017-12-11T15:04:54.192Z,5.60
2017-12-11T15:07:21.740Z,6.70
2017-12-11T15:09:49.291Z,11.93
2017-12-11T15:12:16.856Z,6.87
2017-12-11T15:14:44.415Z,6.28
2017-12-11T15:17:11.944Z,9.97
2017-12-11T15:19:40.214Z,9.30
2017-12-11T15:22:07.769Z,6.00
2017-12-11T15:24:35.292Z,8.87
2017-12-11T15:27:02.877Z,7.67
2017-12-11T15:29:30.406Z,8.40
2017-12-11T15:31:57.972Z,8.00
2017-12-11T15:34:26.296Z,6.82
2017-12-11T15:36:54.000Z,10.20
2017-12-11T15:39:21.572Z,9.93
2017-12-11T15:41:49.168Z,8.27
2017-12-11T15:44:16.724Z,10.70
2017-12-11T15:46:44.256Z,8.97
2017-12-11T15:49:11.870Z,11.87
2017-12-11T15:51:39.424Z,11.00
2017-12-11T15:54:07.728Z,13.13
2017-12-11T15:56:35.590Z,16.40
2017-12-11T15:59:03.933Z,19.80
2017-12-11T16:01:31.459Z,10.45
2017-12-11T16:03:59.664Z,8.17
2017-12-11T16:06:27.192Z,6.97
2017-12-11T16:08:54.727Z,7.00
2017-12-11T16:11:22.415Z,6.87
2017-12-11T16:13:50.739Z,6.63
2017-12-11T16:16:18.272Z,7.50
2017-12-11T16:18:45.847Z,11.43
2017-12-11T16:21:14.631Z,17.10
2017-12-11T16:23:42.182Z,13.93
2017-12-11T16:26:09.740Z,12.23
2017-12-11T16:28:37.278Z,9.10
2017-12-11T16:31:04.827Z,6.57
2017-12-11T16:33:32.560Z,9.50
2017-12-11T16:36:00.764Z,8.67
2017-12-11T16:38:28.336Z,6.50
2017-12-11T16:40:56.754Z,9.53
2017-12-11T16:43:24.361Z,6.17
2017-12-11T16:45:51.904Z,13.13
2017-12-11T16:48:19.557Z,8.73
2017-12-11T16:50:48.810Z,9.87
2017-12-11T16:53:16.500Z,9.02
2017-12-11T16:55:44.113Z,11.63
2017-12-11T16:58:11.656Z,10.70
2017-12-11T17:00:39.194Z,10.80
2017-12-11T17:03:07.776Z,10.23
2017-12-11T17:05:35.831Z,8.87
2017-12-11T17:08:03.384Z,12.73
2017-12-11T17:10:31.009Z,12.60
2017-12-11T17:12:58.540Z,9.77
2017-12-11T17:15:26.080Z,9.87
2017-12-11T17:17:55.117Z,11.40
2017-12-11T17:20:22.676Z,18.93
2017-12-11T17:22:50.211Z,13.70
2017-12-11T17:25:17.768Z,15.87
2017-12-11T17:27:45.311Z,17.27
2017-12-11T17:30:14.571Z,16.50
2017-12-11T17:32:42.149Z,17.93
2017-12-11T17:35:09.683Z,26.83
2017-12-11T17:37:37.220Z,36.10
2017-12-11T17:40:04.824Z,29.20
2017-12-11T17:42:32.381Z,27.75
2017-12-11T17:45:00.736Z,12.67
2017-12-11T17:47:28.340Z,13.90
2017-12-11T17:49:55.906Z,21.33
2017-12-11T17:52:23.484Z,16.58
2017-12-11T17:54:51.086Z,23.60
2017-12-11T17:57:18.632Z,13.98
2017-12-11T17:59:46.195Z,15.77
2017-12-11T18:02:16.445Z,19.12
2017-12-11T18:04:44.090Z,18.43
2017-12-11T18:07:12.524Z,15.57
2017-12-11T18:09:40.186Z,19.70
2017-12-11T18:12:07.739Z,13.63
2017-12-11T18:14:35.272Z,12.20
2017-12-11T18:17:03.664Z,14.20
2017-12-11T18:19:31.302Z,12.73
2017-12-11T18:21:59.015Z,16.13
2017-12-11T18:24:26.825Z,12.15
2017-12-11T18:26:54.360Z,15.00
2017-12-11T18:29:22.009Z,13.80
2017-12-11T18:31:51.002Z,17.73
2017-12-11T18:34:18.595Z,12.00
2017-12-11T18:36:46.148Z,14.53
2017-12-11T18:39:16.358Z,15.95
2017-12-11T18:41:44.737Z,13.87
2017-12-11T18:44:12.343Z,15.53
2017-12-11T18:46:39.931Z,12.93
2017-12-11T18:49:07.551Z,14.45
2017-12-11T18:51:36.087Z,30.23
2017-12-11T18:54:04.531Z,27.07
2017-12-11T18:56:32.076Z,21.60
2017-12-11T18:59:00.414Z,22.23
2017-12-11T19:01:28.004Z,21.87
2017-12-11T19:03:56.334Z,17.83
2017-12-11T19:06:23.912Z,18.83
2017-12-11T19:08:51.554Z,17.25
2017-12-11T19:11:19.251Z,13.67
2017-12-11T19:13:46.907Z,17.90
2017-12-11T19:16:15.603Z,27.40
2017-12-11T19:18:43.139Z,29.37
2017-12-11T19:21:10.686Z,33.77
2017-12-11T19:23:38.308Z,30.47
2017-12-11T19:26:05.851Z,32.73
2017-12-11T19:28:34.164Z,22.58
2017-12-11T19:31:02.069Z,20.43
2017-12-11T19:33:29.617Z,15.47
2017-12-11T19:35:57.921Z,17.53
2017-12-11T19:38:26.283Z,17.63
2017-12-11T19:40:54.606Z,27.47
2017-12-11T19:43:22.280Z,14.90
2017-12-11T19:45:49.853Z,16.70
2017-12-11T19:48:17.398Z,18.03
2017-12-11T19:50:44.933Z,16.60
2017-12-11T19:53:12.527Z,12.98
2017-12-11T19:55:40.082Z,14.37
2017-12-11T19:58:07.663Z,16.30
2017-12-11T20:00:36.031Z,13.07
2017-12-11T20:03:03.572Z,14.77
2017-12-11T20:05:31.138Z,21.33
2017-12-11T20:07:58.687Z,11.37
2017-12-11T20:10:27.016Z,18.23
2017-12-11T20:12:55.390Z,33.77
2017-12-11T20:15:23.046Z,19.00
2017-12-11T20:17:50.767Z,31.70
2017-12-11T20:20:18.312Z,23.73
2017-12-11T20:22:45.874Z,18.70
2017-12-11T20:25:15.437Z,21.34
2017-12-11T20:27:43.020Z,16.03
2017-12-11T20:30:10.635Z,14.33
2017-12-11T20:32:38.173Z,11.07
2017-12-11T20:35:05.798Z,12.73
2017-12-11T20:37:33.436Z,15.50
2017-12-11T20:40:00.974Z,11.00
2017-12-11T20:42:28.525Z,13.20
2017-12-11T20:44:56.100Z,13.97
2017-12-11T20:47:23.653Z,13.00
2017-12-11T20:49:51.220Z,19.60
2017-12-11T20:52:18.842Z,14.40
2017-12-11T20:54:46.408Z,18.40
2017-12-11T20:57:25.304Z,16.90
2017-12-11T21:03:24.631Z,16.90
2017-12-11T21:05:52.243Z,16.83
2017-12-11T21:08:19.842Z,20.00
2017-12-11T21:10:48.200Z,16.23
2017-12-11T21:13:16.426Z,20.87
2017-12-11T21:15:43.960Z,12.00
2017-12-11T21:18:11.564Z,19.17
2017-12-11T21:20:39.132Z,13.43
2017-12-11T21:23:06.699Z,14.57
2017-12-11T21:25:34.296Z,16.27
2017-12-11T21:28:01.980Z,28.80
2017-12-11T21:30:29.512Z,20.02
2017-12-11T21:32:57.851Z,14.33
2017-12-11T21:35:25.388Z,14.40
2017-12-11T21:37:52.977Z,9.37
2017-12-11T21:40:21.458Z,20.20
2017-12-11T21:42:49.828Z,20.13
2017-12-11T21:45:17.368Z,11.33
2017-12-11T21:47:44.944Z,13.67
2017-12-11T21:50:12.488Z,11.32
2017-12-11T21:52:40.020Z,9.47
2017-12-11T21:55:07.677Z,11.63
2017-12-11T21:57:35.207Z,8.93
2017-12-11T22:00:02.738Z,8.87
2017-12-11T22:02:30.371Z,7.87
2017-12-11T22:04:57.899Z,8.90
2017-12-11T22:07:26.229Z,7.97
2017-12-11T22:09:53.832Z,5.37
2017-12-11T22:12:22.775Z,9.48
2017-12-11T22:14:50.344Z,6.43
2017-12-11T22:17:17.908Z,6.70
2017-12-11T22:19:45.479Z,6.50
2017-12-11T22:22:14.656Z,7.90
2017-12-11T22:24:42.237Z,6.30
2017-12-11T22:27:09.772Z,5.47
2017-12-11T22:29:37.440Z,5.50
2017-12-11T22:32:05.027Z,5.00
2017-12-11T22:34:32.592Z,4.77
2017-12-11T22:37:00.879Z,3.80
2017-12-11T22:39:28.628Z,3.20
2017-12-11T22:41:56.924Z,3.07
2017-12-11T22:44:24.452Z,3.30
2017-12-11T22:46:52.796Z,2.57
2017-12-11T22:49:20.333Z,2.12
2017-12-11T22:51:47.867Z,2.43
2017-12-11T22:54:16.516Z,2.00
2017-12-11T22:56:44.105Z,1.53
2017-12-11T22:59:11.639Z,1.70
2017-12-11T23:01:39.195Z,1.67
2017-12-11T23:04:06.777Z,1.90
2017-12-11T23:06:34.292Z,1.83
2017-12-11T23:09:01.881Z,1.50
2017-12-11T23:11:30.188Z,1.45
2017-12-11T23:13:58.959Z,1.47
2017-12-11T23:16:26.512Z,1.62
2017-12-11T23:18:54.811Z,1.40
2017-12-11T23:21:22.339Z,2.30
2017-12-11T23:23:49.903Z,1.53
2017-12-11T23:26:18.204Z,1.50
2017-12-11T23:28:45.746Z,1.70
2017-12-11T23:31:25.950Z,1.27
2017-12-11T23:34:43.655Z,1.97
2017-12-11T23:37:11.208Z,3.23
2017-12-11T23:39:38.731Z,2.60
2017-12-11T23:42:06.260Z,1.20
2017-12-11T23:44:33.819Z,2.10
2017-12-11T23:47:01.340Z,1.37
2017-12-11T23:49:28.875Z,2.20
2017-12-11T23:51:56.459Z,1.40
2017-12-11T23:54:33.861Z,2.50
2017-12-11T23:57:01.415Z,1.30
2017-12-11T23:59:28.947Z,4.60
